createdAt,value
2023-04-15T00:07:08.982Z,17.3
2023-04-15T00:17:17.913Z,17.4
2023-04-15T00:27:26.486Z,17.5
2023-04-15T00:37:35.279Z,17.3
2023-04-15T00:47:43.620Z,16.8
2023-04-15T00:57:52.264Z,16.9
2023-04-15T01:08:00.979Z,16.7
2023-04-15T01:18:09.855Z,16.7
2023-04-15T01:28:18.640Z,16.9
2023-04-15T01:38:18.697Z,17
2023-04-15T01:48:27.757Z,16.8
2023-04-15T01:58:36.523Z,16.8
2023-04-15T02:08:45.320Z,16.7
2023-04-15T02:18:54.222Z,16.4
2023-04-15T02:29:03.114Z,16.1
2023-04-15T02:39:11.996Z,15.9
2023-04-15T02:49:20.685Z,15.8
2023-04-15T02:59:29.539Z,15.8
2023-04-15T03:09:38.286Z,15.6
2023-04-15T03:19:46.976Z,15.3
2023-04-15T03:29:55.895Z,15.2
2023-04-15T03:40:04.789Z,15.3
2023-04-15T03:50:13.665Z,15.4
2023-04-15T04:00:22.440Z,15.4
2023-04-15T04:10:31.286Z,15.4
2023-04-15T04:20:40.033Z,15.1
2023-04-15T04:30:48.872Z,15.4
2023-04-15T04:40:57.915Z,15.5
2023-04-15T04:51:06.596Z,15.4
2023-04-15T05:01:15.446Z,15.2
2023-04-15T05:11:24.318Z,15
2023-04-15T05:21:33.068Z,14.9
2023-04-15T05:31:41.355Z,14.8
2023-04-15T05:41:49.997Z,14.8
2023-04-15T05:51:58.823Z,15
2023-04-15T06:02:07.779Z,15.1
2023-04-15T06:12:16.511Z,14.9
2023-04-15T06:22:25.250Z,15.1
2023-04-15T06:37:57.861Z,15.5
2023-04-15T06:48:06.721Z,15.4
2023-04-15T06:58:15.420Z,15.3
2023-04-15T07:08:24.043Z,15.5
2023-04-15T07:18:32.659Z,15.7
2023-04-15T07:28:41.249Z,17.1
2023-04-15T07:38:49.872Z,18.9
2023-04-15T07:48:58.606Z,19.1
2023-04-15T07:59:07.228Z,20.7
2023-04-15T08:09:15.935Z,21.2
2023-04-15T08:19:24.651Z,21.9
2023-04-15T08:29:33.298Z,22
2023-04-15T08:39:42.005Z,22
2023-04-15T08:49:50.650Z,22.4
2023-04-15T08:59:59.391Z,22.6
2023-04-15T09:10:07.588Z,22
2023-04-15T09:20:16.165Z,22.7
2023-04-15T09:30:24.754Z,22.8
2023-04-15T09:40:33.271Z,22.9
2023-04-15T09:50:41.901Z,23.4
2023-04-15T10:00:50.735Z,23.6
2023-04-15T10:10:59.430Z,24.4
2023-04-15T10:21:08.277Z,23.7
2023-04-15T10:31:16.960Z,23.8
2023-04-15T10:41:25.567Z,23.5
2023-04-15T10:51:34.305Z,23.5
2023-04-15T11:01:43.018Z,23.5
2023-04-15T11:11:51.773Z,23.3
2023-04-15T11:22:00.644Z,23.2
2023-04-15T11:32:09.422Z,23.1
2023-04-15T11:42:19.393Z,23.3
2023-04-15T11:52:19.698Z,23.5
2023-04-15T12:02:20.835Z,23.7
2023-04-15T12:12:29.878Z,23.6
2023-04-15T12:22:29.976Z,23.6
2023-04-15T12:32:30.403Z,23.6
2023-04-15T12:42:38.652Z,22.8
2023-04-15T12:52:47.435Z,23
2023-04-15T13:02:56.272Z,23.7
2023-04-15T13:13:04.518Z,23.6
2023-04-15T13:23:04.923Z,23.2
2023-04-15T13:33:13.552Z,22.9
2023-04-15T13:43:22.251Z,22.6
2023-04-15T13:53:36.087Z,22.8
2023-04-15T14:03:42.592Z,22
2023-04-15T14:13:42.214Z,21.6
2023-04-15T14:23:50.990Z,21
2023-04-15T14:34:00.172Z,20.9
2023-04-15T14:44:09.715Z,21.1
2023-04-15T14:54:18.073Z,21.1
2023-04-15T15:04:26.400Z,21.1
2023-04-15T15:14:35.137Z,20.5
2023-04-15T15:24:43.850Z,20.7
2023-04-15T15:34:52.536Z,20.2
2023-04-15T15:45:01.148Z,19.9
2023-04-15T15:55:11.047Z,19.2
2023-04-15T16:05:19.789Z,19.3
2023-04-15T16:15:28.411Z,19.4
2023-04-15T16:25:37.660Z,18.4
2023-04-15T16:35:46.269Z,18.6
2023-04-15T16:45:55.082Z,18.9
2023-04-15T16:56:03.981Z,18.5
2023-04-15T17:06:12.733Z,18.3
2023-04-15T17:16:21.627Z,18.1
2023-04-15T17:26:30.046Z,18.2
2023-04-15T17:36:38.686Z,17.9
2023-04-15T17:46:47.437Z,17.6
2023-04-15T17:56:56.174Z,17.9
2023-04-15T18:07:04.873Z,18.3
2023-04-15T18:17:13.594Z,18.3
2023-04-15T18:27:22.272Z,17.9
2023-04-15T18:37:31.107Z,18.1
2023-04-15T18:47:39.920Z,18.2
2023-04-15T18:57:48.714Z,18
2023-04-15T19:07:57.395Z,18.1
2023-04-15T19:18:04.706Z,18.1
2023-04-15T19:28:13.347Z,17.6
2023-04-15T19:38:21.936Z,17.6
2023-04-15T19:48:30.613Z,17.5
2023-04-15T19:58:39.261Z,17.1
2023-04-15T20:08:47.929Z,16.9
2023-04-15T20:18:56.536Z,16.8
2023-04-15T20:29:05.846Z,16.5
2023-04-15T20:39:13.848Z,16.7
2023-04-15T20:49:22.730Z,16.6
2023-04-15T20:59:31.408Z,16.5
2023-04-15T21:09:40.191Z,16.3
2023-04-15T21:19:48.936Z,16.5
2023-04-15T21:29:57.687Z,16.5
2023-04-15T21:40:06.453Z,16.4
2023-04-15T21:50:15.050Z,16.1
2023-04-15T22:00:23.794Z,15.8
2023-04-15T22:10:32.419Z,15.7
2023-04-15T22:20:41.106Z,15.6
2023-04-15T22:30:49.878Z,15.4
2023-04-15T22:40:58.671Z,15.4
2023-04-15T22:51:07.369Z,15.4
2023-04-15T23:01:16.101Z,15.4
2023-04-15T23:11:25.055Z,15.5
2023-04-15T23:21:33.853Z,15.5
2023-04-15T23:31:42.654Z,15.1
2023-04-15T23:41:51.352Z,14.7
2023-04-15T23:52:00.027Z,14.5
